Terminal Aerodrome Forecast
Issued by NWS Wilmington, OH

Current Version | Previous Version | Text Only | Print | Product List | Glossary Off
Versions: 1 2 3 4 5 6 7 8 9 10 11 12 13 14 15 16 17 18 19

000
FTUS41 KILN 200358 AAA
TAFILN
TAF AMD
KILN 200358Z 2004/2024 22016G22KT P6SM BKN250
     FM200500 22013KT P6SM BKN250 WS020/24045KT
     FM201000 22012KT P6SM BKN250
     FM201700 23013G22KT P6SM BKN025=

USA.gov is the U.S. government's official web portal to all federal, state and local government web resources and services.